Weather at Simpang Airport

Public forecast

Using degrees Celsius for public forecast. Weather courtesy of forecast.io.

Closest aviation weather report (METAR) to Simpang Airport

Closest report is Sultan Abdul Aziz Shah International Airport, 9.3 nm (17.2 km) W.

2024/03/03 09:00 (retrieved 1 hour ago)

WMSA 030900Z 05003KT 340V140 9999 FEW026 31/23 Q1008

Closest aviation forecast (TAF) to Simpang Airport

Closest forecast is Sultan Abdul Aziz Shah International Airport, 9.3 nm (17.2 km) W.

2024/03/03 06:09 (retrieved 4 hours ago)

TAF WMSA 030500Z 0306/0406 03005KT 9999 FEW018 TEMPO 0307/0311 4000 TSRA FEW016CB SCT018